createdAt,value
2018-08-16T00:01:01.596Z,99.90
2018-08-16T00:03:31.086Z,99.90
2018-08-16T00:06:00.482Z,99.90
2018-08-16T00:08:29.906Z,99.90
2018-08-16T00:10:59.303Z,99.90
2018-08-16T00:13:28.789Z,99.90
2018-08-16T00:15:58.185Z,99.90
2018-08-16T00:18:27.621Z,99.90
2018-08-16T00:20:57.026Z,99.90
2018-08-16T00:23:26.541Z,99.90
2018-08-16T00:25:55.960Z,99.90
2018-08-16T00:28:25.428Z,99.90
2018-08-16T00:30:54.845Z,99.90
2018-08-16T00:33:24.321Z,99.90
2018-08-16T00:35:53.734Z,99.90
2018-08-16T00:38:23.137Z,99.90
2018-08-16T00:40:52.528Z,99.90
2018-08-16T00:43:21.972Z,99.90
2018-08-16T00:45:51.363Z,99.90
2018-08-16T00:48:20.864Z,99.90
2018-08-16T00:50:50.253Z,99.90
2018-08-16T00:53:19.766Z,99.90
2018-08-16T00:55:49.161Z,99.90
2018-08-16T00:58:18.669Z,99.90
2018-08-16T01:00:48.050Z,99.90
2018-08-16T01:03:17.469Z,99.90
2018-08-16T01:05:46.866Z,99.90
2018-08-16T01:08:16.393Z,99.90
2018-08-16T01:10:45.717Z,99.90
2018-08-16T01:13:15.113Z,99.90
2018-08-16T01:15:44.420Z,99.90
2018-08-16T01:18:13.763Z,99.90
2018-08-16T01:20:43.103Z,99.90
2018-08-16T01:23:12.553Z,99.90
2018-08-16T01:25:41.874Z,99.90
2018-08-16T01:28:11.237Z,99.90
2018-08-16T01:30:40.573Z,99.90
2018-08-16T01:33:10.460Z,99.90
2018-08-16T01:35:39.937Z,99.90
2018-08-16T01:38:09.245Z,99.90
2018-08-16T01:40:38.603Z,99.90
2018-08-16T01:43:07.923Z,99.90
2018-08-16T01:45:37.272Z,99.90
2018-08-16T01:48:06.644Z,99.90
2018-08-16T01:50:35.965Z,99.90
2018-08-16T01:53:05.357Z,99.90
2018-08-16T01:55:34.710Z,99.90
2018-08-16T01:58:04.165Z,99.90
2018-08-16T02:00:33.512Z,99.90
2018-08-16T02:03:02.842Z,99.90
2018-08-16T02:05:32.165Z,99.90
2018-08-16T02:08:01.549Z,99.90
2018-08-16T02:10:30.885Z,99.90
2018-08-16T02:13:00.248Z,99.90
2018-08-16T02:15:29.581Z,99.90
2018-08-16T02:17:58.965Z,99.90
2018-08-16T02:20:28.306Z,99.90
2018-08-16T02:22:57.645Z,99.90
2018-08-16T02:25:27.014Z,99.90
2018-08-16T02:27:56.385Z,99.90
2018-08-16T02:30:25.749Z,99.90
2018-08-16T02:32:55.195Z,99.90
2018-08-16T02:35:24.551Z,99.90
2018-08-16T02:37:53.997Z,99.90
2018-08-16T02:40:23.356Z,99.90
2018-08-16T02:42:52.809Z,99.90
2018-08-16T02:45:22.177Z,99.90
2018-08-16T02:47:51.668Z,99.90
2018-08-16T02:50:21.036Z,99.90
2018-08-16T02:52:50.437Z,99.90
2018-08-16T02:55:19.799Z,99.90
2018-08-16T02:57:49.216Z,99.90
2018-08-16T03:00:18.577Z,99.90
2018-08-16T03:02:48.043Z,99.90
2018-08-16T03:05:17.402Z,99.90
2018-08-16T03:07:46.753Z,99.90
2018-08-16T03:10:16.109Z,99.90
2018-08-16T03:12:45.456Z,99.90
2018-08-16T03:15:14.796Z,99.90
2018-08-16T03:17:44.217Z,99.90
2018-08-16T03:20:13.576Z,99.90
2018-08-16T03:22:43.048Z,99.90
2018-08-16T03:25:12.425Z,99.90
2018-08-16T03:27:41.861Z,99.90
2018-08-16T03:30:11.212Z,99.90
2018-08-16T03:32:40.656Z,99.90
2018-08-16T03:35:10.014Z,99.90
2018-08-16T03:37:39.444Z,99.90
2018-08-16T03:40:08.838Z,99.90
2018-08-16T03:42:38.262Z,99.90
2018-08-16T03:45:08.430Z,99.90
2018-08-16T03:47:37.909Z,99.90
2018-08-16T03:50:08.256Z,99.90
2018-08-16T03:52:38.061Z,99.90
2018-08-16T03:55:07.685Z,99.90
2018-08-16T03:57:37.203Z,99.90
2018-08-16T04:00:07.733Z,99.90
2018-08-16T04:02:37.302Z,99.90
2018-08-16T04:05:07.233Z,99.90
2018-08-16T04:07:36.720Z,99.90
2018-08-16T04:10:06.527Z,99.90
2018-08-16T04:12:35.899Z,99.90
2018-08-16T04:15:05.433Z,99.90
2018-08-16T04:17:36.199Z,99.90
2018-08-16T04:20:07.257Z,99.90
2018-08-16T04:22:36.820Z,99.90
2018-08-16T04:25:06.541Z,99.90
2018-08-16T04:27:35.996Z,99.90
2018-08-16T04:30:06.637Z,99.90
2018-08-16T04:32:36.056Z,99.90
2018-08-16T04:35:05.788Z,99.90
2018-08-16T04:37:35.129Z,99.90
2018-08-16T04:40:04.975Z,99.90
2018-08-16T04:42:34.341Z,99.90
2018-08-16T04:45:03.718Z,99.90
2018-08-16T04:47:33.157Z,99.90
2018-08-16T04:50:02.487Z,99.90
2018-08-16T04:52:31.856Z,99.90
2018-08-16T04:55:01.195Z,99.90
2018-08-16T04:57:30.536Z,99.90
2018-08-16T04:59:59.871Z,99.90
2018-08-16T05:02:29.253Z,99.90
2018-08-16T05:04:58.594Z,99.90
2018-08-16T05:07:27.952Z,99.90
2018-08-16T05:09:57.315Z,99.90
2018-08-16T05:12:26.750Z,99.90
2018-08-16T05:14:56.117Z,99.90
2018-08-16T05:17:25.578Z,99.90
2018-08-16T05:19:54.906Z,99.90
2018-08-16T05:22:24.261Z,99.90
2018-08-16T05:24:53.596Z,99.90
2018-08-16T05:27:22.964Z,99.90
2018-08-16T05:29:52.285Z,99.90
2018-08-16T05:32:21.713Z,99.90
2018-08-16T05:34:51.244Z,99.90
2018-08-16T05:37:20.857Z,99.90
2018-08-16T05:39:50.189Z,99.90
2018-08-16T05:42:19.601Z,99.90
2018-08-16T05:44:48.922Z,99.90
2018-08-16T05:47:18.288Z,99.90
2018-08-16T05:49:47.654Z,99.90
2018-08-16T05:52:17.121Z,99.90
2018-08-16T05:54:46.464Z,99.90
2018-08-16T05:57:15.912Z,99.90
2018-08-16T05:59:45.265Z,99.90
2018-08-16T06:02:14.636Z,99.90
2018-08-16T06:04:43.977Z,99.90
2018-08-16T06:07:14.009Z,99.90
2018-08-16T06:09:43.510Z,99.90
2018-08-16T06:12:13.103Z,99.90
2018-08-16T06:14:42.531Z,99.90
2018-08-16T06:17:11.993Z,99.90
2018-08-16T06:19:42.937Z,99.90
2018-08-16T06:22:12.554Z,99.90
2018-08-16T06:24:41.954Z,99.90
2018-08-16T06:27:11.465Z,99.90
2018-08-16T06:29:41.035Z,99.90
2018-08-16T06:32:10.506Z,99.90
2018-08-16T06:34:39.894Z,99.90
2018-08-16T06:37:09.364Z,99.90
2018-08-16T06:39:38.746Z,99.90
2018-08-16T06:42:08.272Z,99.90
2018-08-16T06:44:37.681Z,99.90
2018-08-16T06:47:07.159Z,99.90
2018-08-16T06:49:36.498Z,99.90
2018-08-16T06:52:05.953Z,99.90
2018-08-16T06:54:35.309Z,99.90
2018-08-16T06:57:04.759Z,99.90
2018-08-16T06:59:34.576Z,99.90
2018-08-16T07:02:04.454Z,99.90
2018-08-16T07:04:34.040Z,99.90
2018-08-16T07:07:03.427Z,99.90
2018-08-16T07:09:32.898Z,99.90
2018-08-16T07:12:02.368Z,99.90
2018-08-16T07:14:31.669Z,99.90
2018-08-16T07:17:01.045Z,99.90
2018-08-16T07:19:30.494Z,99.90
2018-08-16T07:21:59.857Z,99.90
2018-08-16T07:24:29.406Z,99.90
2018-08-16T07:26:58.778Z,99.90
2018-08-16T07:29:28.165Z,99.90
2018-08-16T07:31:57.590Z,99.90
2018-08-16T07:34:27.021Z,99.90
2018-08-16T07:36:56.685Z,99.90
2018-08-16T07:39:26.128Z,99.90
2018-08-16T07:41:55.480Z,99.90
2018-08-16T07:44:24.934Z,99.90
2018-08-16T07:46:54.316Z,99.90
2018-08-16T07:49:23.890Z,99.90
2018-08-16T07:51:53.313Z,99.90
2018-08-16T07:54:22.665Z,99.90
2018-08-16T07:56:52.095Z,99.90
2018-08-16T07:59:21.449Z,99.90
2018-08-16T08:01:51.711Z,99.90
2018-08-16T08:04:21.183Z,99.90
2018-08-16T08:06:50.605Z,99.90
2018-08-16T08:09:20.145Z,99.90
2018-08-16T08:11:49.358Z,99.90
2018-08-16T08:14:18.829Z,99.90
2018-08-16T08:16:48.180Z,99.90
2018-08-16T08:19:17.598Z,99.90
2018-08-16T08:21:46.959Z,99.90
2018-08-16T08:24:16.418Z,99.90
2018-08-16T08:26:45.761Z,99.90
2018-08-16T08:29:15.313Z,99.90
2018-08-16T08:31:44.695Z,99.90
2018-08-16T08:34:14.117Z,99.90
2018-08-16T08:37:00.511Z,99.90
2018-08-16T08:39:29.895Z,99.90
2018-08-16T08:41:59.308Z,99.90
2018-08-16T08:44:29.181Z,99.90
2018-08-16T08:46:58.530Z,99.90
2018-08-16T08:49:27.885Z,99.90
2018-08-16T08:51:57.311Z,99.90
2018-08-16T08:54:47.791Z,99.90
2018-08-16T08:57:35.084Z,99.90
2018-08-16T09:00:05.473Z,99.90
2018-08-16T09:02:34.833Z,99.90
2018-08-16T09:05:05.432Z,99.90
2018-08-16T09:07:34.776Z,99.90
2018-08-16T09:11:19.937Z,99.90
2018-08-16T09:14:08.296Z,99.90
2018-08-16T09:16:38.711Z,99.90
2018-08-16T09:19:08.921Z,99.90
2018-08-16T09:21:38.437Z,99.90
2018-08-16T09:24:08.043Z,99.90
2018-08-16T09:26:39.189Z,99.90
2018-08-16T09:30:26.508Z,99.90
2018-08-16T09:33:13.095Z,99.90
2018-08-16T09:35:42.419Z,99.90
2018-08-16T09:38:11.875Z,99.90
2018-08-16T09:40:41.183Z,99.90
2018-08-16T09:43:10.544Z,99.90
2018-08-16T09:48:00.391Z,99.90
2018-08-16T09:50:29.718Z,99.90
2018-08-16T09:52:59.174Z,99.90
2018-08-16T09:55:28.489Z,99.20
2018-08-16T09:57:57.869Z,99.80
2018-08-16T10:00:32.440Z,99.60
2018-08-16T10:03:01.781Z,98.70
2018-08-16T10:05:31.207Z,98.40
2018-08-16T10:08:00.533Z,97.90
2018-08-16T10:10:29.887Z,97.90
2018-08-16T10:12:59.205Z,98.20
2018-08-16T10:15:28.529Z,97.80
2018-08-16T10:17:57.877Z,97.80
2018-08-16T10:20:27.276Z,97.60
2018-08-16T10:22:56.608Z,97.70
2018-08-16T10:25:25.997Z,96.70
2018-08-16T10:27:55.352Z,96.50
2018-08-16T10:30:24.810Z,96.80
2018-08-16T10:32:54.133Z,96.30
2018-08-16T10:35:23.498Z,96.20
2018-08-16T10:37:52.796Z,96.30
2018-08-16T10:40:22.206Z,95.50
2018-08-16T10:42:51.532Z,96.50
2018-08-16T10:45:20.901Z,96.20
2018-08-16T10:47:50.225Z,95.20
2018-08-16T10:50:19.604Z,95.20
2018-08-16T10:52:48.929Z,95.40
2018-08-16T10:55:18.320Z,94.80
2018-08-16T10:57:47.665Z,94.80
2018-08-16T11:00:17.049Z,95.10
2018-08-16T11:02:46.370Z,94.80
2018-08-16T11:05:15.704Z,94.20
2018-08-16T11:07:45.064Z,93.90
2018-08-16T11:10:14.421Z,93.80
2018-08-16T11:12:43.746Z,94.10
2018-08-16T11:15:13.121Z,93.60
2018-08-16T11:17:42.452Z,93.20
2018-08-16T11:20:11.589Z,93.10
2018-08-16T11:22:40.963Z,93.00
2018-08-16T11:25:10.309Z,92.50
2018-08-16T11:27:39.641Z,92.10
2018-08-16T11:30:09.036Z,92.30
2018-08-16T11:32:38.357Z,91.70
2018-08-16T11:35:07.815Z,92.00
2018-08-16T11:37:37.075Z,91.00
2018-08-16T11:40:07.033Z,90.70
2018-08-16T11:42:36.370Z,90.50
2018-08-16T11:45:06.765Z,90.10
2018-08-16T11:47:36.121Z,89.10
2018-08-16T11:50:06.052Z,89.40
2018-08-16T11:52:35.388Z,89.00
2018-08-16T11:55:05.018Z,87.60
2018-08-16T11:57:34.403Z,86.70
2018-08-16T12:00:03.857Z,86.80
2018-08-16T12:02:33.565Z,87.40
2018-08-16T12:05:03.063Z,87.10
2018-08-16T12:07:32.453Z,88.20
2018-08-16T12:10:01.858Z,87.70
2018-08-16T12:12:31.222Z,87.90
2018-08-16T12:15:00.720Z,87.50
2018-08-16T12:17:30.051Z,85.80
2018-08-16T12:19:59.404Z,86.30
2018-08-16T12:22:29.030Z,85.70
2018-08-16T12:24:58.389Z,84.30
2018-08-16T12:27:27.758Z,85.60
2018-08-16T12:29:57.109Z,85.70
2018-08-16T12:32:26.481Z,83.70
2018-08-16T12:34:55.921Z,81.80
2018-08-16T12:37:25.260Z,83.90
2018-08-16T12:39:54.627Z,82.30
2018-08-16T12:42:24.059Z,82.10
2018-08-16T12:44:53.720Z,62.50
2018-08-16T12:47:23.191Z,64.80
2018-08-16T12:49:52.509Z,58.30
2018-08-16T12:52:21.857Z,63.20
2018-08-16T12:54:51.766Z,45.70
2018-08-16T12:57:21.130Z,47.10
2018-08-16T12:59:50.550Z,52.20
2018-08-16T13:02:19.883Z,52.40
2018-08-16T13:04:49.321Z,39.20
2018-08-16T13:07:18.755Z,30.80
2018-08-16T13:09:48.098Z,18.20
2018-08-16T13:12:17.448Z,22.50
2018-08-16T13:14:46.816Z,18.00
2018-08-16T13:17:16.140Z,20.00
2018-08-16T13:19:45.548Z,11.70
2018-08-16T13:22:14.881Z,13.30
2018-08-16T13:24:44.314Z,10.20
2018-08-16T13:27:13.803Z,3.90
2018-08-16T13:29:43.148Z,4.00
2018-08-16T13:32:12.485Z,5.10
2018-08-16T13:34:41.933Z,4.50
2018-08-16T13:37:11.874Z,1.00
2018-08-16T13:39:41.145Z,1.00
2018-08-16T13:42:10.553Z,1.00
2018-08-16T13:44:39.816Z,1.00
2018-08-16T13:47:09.190Z,1.00
2018-08-16T13:49:38.586Z,1.00
2018-08-16T13:52:08.937Z,1.00
2018-08-16T13:54:38.549Z,1.00
2018-08-16T13:57:07.904Z,1.00
2018-08-16T13:59:37.288Z,1.00
2018-08-16T14:02:06.860Z,1.00
2018-08-16T14:04:36.316Z,1.00
2018-08-16T14:07:05.711Z,1.00
2018-08-16T14:09:35.081Z,1.00
2018-08-16T14:12:04.512Z,1.00
2018-08-16T14:14:33.974Z,1.00
2018-08-16T14:17:03.440Z,1.00
2018-08-16T14:19:32.801Z,1.00
2018-08-16T14:22:02.266Z,1.00
2018-08-16T14:24:31.619Z,1.00
2018-08-16T14:27:01.046Z,1.00
2018-08-16T14:29:30.437Z,1.00
2018-08-16T14:31:59.924Z,1.00
2018-08-16T14:34:29.250Z,1.00
2018-08-16T14:36:58.677Z,1.00
2018-08-16T14:39:28.035Z,1.00
2018-08-16T14:41:57.480Z,1.00
2018-08-16T14:44:26.833Z,1.00
2018-08-16T14:46:56.275Z,1.00
2018-08-16T14:49:25.599Z,1.00
2018-08-16T14:51:54.960Z,1.00
2018-08-16T14:54:24.289Z,1.00
2018-08-16T14:56:53.679Z,1.00
2018-08-16T14:59:23.077Z,1.00
2018-08-16T15:01:52.441Z,1.00
2018-08-16T15:04:21.782Z,1.00
2018-08-16T15:06:51.144Z,1.00
2018-08-16T15:09:20.538Z,1.00
2018-08-16T15:11:49.982Z,1.00
2018-08-16T15:14:19.327Z,1.00
2018-08-16T15:16:48.764Z,1.00
2018-08-16T15:19:18.088Z,1.00
2018-08-16T15:21:47.516Z,1.00
2018-08-16T15:24:20.028Z,1.00
2018-08-16T15:26:50.029Z,1.00
2018-08-16T15:29:20.255Z,1.00
2018-08-16T15:31:49.698Z,1.00
2018-08-16T15:34:19.042Z,1.00
2018-08-16T15:36:48.372Z,1.00
2018-08-16T15:39:17.743Z,1.00
2018-08-16T15:41:47.095Z,1.00
2018-08-16T15:44:16.434Z,1.00
2018-08-16T15:46:45.813Z,1.00
2018-08-16T15:49:15.176Z,1.00
2018-08-16T15:51:44.642Z,1.00
2018-08-16T15:54:13.987Z,1.00
2018-08-16T15:56:43.451Z,1.00
2018-08-16T15:59:12.822Z,1.00
2018-08-16T16:01:42.256Z,1.00
2018-08-16T16:04:11.617Z,1.00
2018-08-16T16:06:41.100Z,1.00
2018-08-16T16:09:10.997Z,1.00
2018-08-16T16:11:40.486Z,1.00
2018-08-16T16:14:09.879Z,1.00
2018-08-16T16:16:39.268Z,1.00
2018-08-16T16:19:08.661Z,1.00
2018-08-16T16:21:38.108Z,1.00
2018-08-16T16:24:07.495Z,1.00
2018-08-16T16:26:36.900Z,1.00
2018-08-16T16:29:06.313Z,1.00
2018-08-16T16:31:35.701Z,1.00
2018-08-16T16:34:05.064Z,1.00
2018-08-16T16:36:34.480Z,1.00
2018-08-16T16:39:04.054Z,1.00
2018-08-16T16:41:33.524Z,1.00
2018-08-16T16:44:02.872Z,1.00
2018-08-16T16:46:32.314Z,1.00
2018-08-16T16:49:01.698Z,1.00
2018-08-16T16:51:31.108Z,1.00
2018-08-16T16:54:00.457Z,1.00
2018-08-16T16:56:29.918Z,1.00
2018-08-16T16:58:59.298Z,1.00
2018-08-16T17:01:28.701Z,1.00
2018-08-16T17:03:58.162Z,1.00
2018-08-16T17:06:27.515Z,1.00
2018-08-16T17:08:56.859Z,1.00
2018-08-16T17:11:26.224Z,1.00
2018-08-16T17:13:55.576Z,1.00
2018-08-16T17:16:25.022Z,1.00
2018-08-16T17:18:54.604Z,1.00
2018-08-16T17:21:24.021Z,1.00
2018-08-16T17:23:53.368Z,1.00
2018-08-16T17:26:22.811Z,1.00
2018-08-16T17:28:52.076Z,1.00
2018-08-16T17:31:21.441Z,1.00
2018-08-16T17:33:50.805Z,1.00
2018-08-16T17:36:20.402Z,1.00
2018-08-16T17:38:49.730Z,1.00
2018-08-16T17:41:19.139Z,1.00
2018-08-16T17:43:48.465Z,1.00
2018-08-16T17:46:17.841Z,1.00
2018-08-16T17:48:47.185Z,1.00
2018-08-16T17:51:16.539Z,1.00
2018-08-16T17:53:45.967Z,1.00
2018-08-16T17:56:15.310Z,1.00
2018-08-16T17:58:44.671Z,1.00
2018-08-16T18:01:14.005Z,1.00
2018-08-16T18:03:43.883Z,1.00
2018-08-16T18:06:13.234Z,1.00
2018-08-16T18:08:43.067Z,1.00
2018-08-16T18:11:12.758Z,1.00
2018-08-16T18:13:42.381Z,1.00
2018-08-16T18:16:11.719Z,1.00
2018-08-16T18:18:41.107Z,1.00
2018-08-16T18:21:10.430Z,1.00
2018-08-16T18:23:39.821Z,1.00
2018-08-16T18:26:09.181Z,1.00
2018-08-16T18:28:38.632Z,1.00
2018-08-16T18:31:08.028Z,1.00
2018-08-16T18:33:37.361Z,1.00
2018-08-16T18:36:07.096Z,1.00
2018-08-16T18:38:36.576Z,1.00
2018-08-16T18:41:06.063Z,1.00
2018-08-16T18:43:35.414Z,1.00
2018-08-16T18:46:04.797Z,1.00
2018-08-16T18:48:34.123Z,1.00
2018-08-16T18:51:03.591Z,1.00
2018-08-16T18:53:32.929Z,1.00
2018-08-16T18:56:02.390Z,1.00
2018-08-16T18:58:31.724Z,1.00
2018-08-16T19:01:01.160Z,1.00
2018-08-16T19:03:30.495Z,1.00
2018-08-16T19:05:59.873Z,1.00
2018-08-16T19:08:29.228Z,1.00
2018-08-16T19:10:58.688Z,1.00
2018-08-16T19:13:28.033Z,1.00
2018-08-16T19:15:57.486Z,1.00
2018-08-16T19:18:26.817Z,1.00
2018-08-16T19:20:56.197Z,1.00
2018-08-16T19:23:25.571Z,1.00
2018-08-16T19:25:54.896Z,3.10
2018-08-16T19:28:24.249Z,9.50
2018-08-16T19:30:53.701Z,11.70
2018-08-16T19:33:23.065Z,14.50
2018-08-16T19:35:52.562Z,17.10
2018-08-16T19:38:21.796Z,19.80
2018-08-16T19:40:51.145Z,26.20
2018-08-16T19:43:20.614Z,33.70
2018-08-16T19:45:49.976Z,37.10
2018-08-16T19:48:19.418Z,46.50
2018-08-16T19:50:48.702Z,51.70
2018-08-16T19:53:18.114Z,54.80
2018-08-16T19:55:47.461Z,82.40
2018-08-16T19:58:16.950Z,95.00
2018-08-16T20:00:46.292Z,98.00
2018-08-16T20:03:15.761Z,98.80
2018-08-16T20:05:45.137Z,99.40
2018-08-16T20:08:14.521Z,99.90
2018-08-16T20:10:43.994Z,99.90
2018-08-16T20:13:13.423Z,99.90
2018-08-16T20:15:42.736Z,99.90
2018-08-16T20:18:12.141Z,99.90
2018-08-16T20:20:41.442Z,99.90
2018-08-16T20:23:10.805Z,99.90
2018-08-16T20:25:40.226Z,99.90
2018-08-16T20:28:09.709Z,99.90
2018-08-16T20:30:40.233Z,99.90
2018-08-16T20:33:09.981Z,99.90
2018-08-16T20:35:39.333Z,99.90
2018-08-16T20:38:08.741Z,99.90
2018-08-16T20:40:38.397Z,99.90
2018-08-16T20:43:07.769Z,99.90
2018-08-16T20:45:37.228Z,99.90
2018-08-16T20:48:06.611Z,99.90
2018-08-16T20:50:36.024Z,99.90
2018-08-16T20:53:05.540Z,99.90
2018-08-16T20:55:35.152Z,99.90
2018-08-16T20:58:04.485Z,99.90
2018-08-16T21:00:34.011Z,99.90
2018-08-16T21:03:03.445Z,99.90
2018-08-16T21:05:32.883Z,99.90
2018-08-16T21:08:02.342Z,99.90
2018-08-16T21:10:31.841Z,99.90
2018-08-16T21:17:49.969Z,99.90
2018-08-16T21:20:19.329Z,99.90
2018-08-16T21:22:48.809Z,99.90
2018-08-16T21:25:18.165Z,99.90
2018-08-16T21:27:47.573Z,99.90
2018-08-16T21:30:16.915Z,99.90
2018-08-16T21:32:46.320Z,99.90
2018-08-16T21:35:15.668Z,99.90
2018-08-16T21:37:45.048Z,99.90
2018-08-16T21:40:14.409Z,99.90
2018-08-16T21:42:43.820Z,99.90
2018-08-16T21:45:13.164Z,1.00
2018-08-16T21:47:42.527Z,1.00
2018-08-16T21:50:11.876Z,1.00
2018-08-16T21:52:41.361Z,1.00
2018-08-16T21:55:10.704Z,1.00
2018-08-16T21:57:40.168Z,56.40
2018-08-16T22:00:10.356Z,97.80
2018-08-16T22:02:39.671Z,98.70
2018-08-16T22:05:09.052Z,98.70
2018-08-16T22:08:14.280Z,99.10
2018-08-16T22:10:44.380Z,99.40
2018-08-16T22:13:13.703Z,99.90
2018-08-16T22:15:43.140Z,99.90
2018-08-16T22:18:12.469Z,99.90
2018-08-16T22:20:41.860Z,99.90
2018-08-16T22:23:11.236Z,99.90
2018-08-16T22:25:40.658Z,99.90
2018-08-16T22:28:10.018Z,99.90
2018-08-16T22:30:39.472Z,99.90
2018-08-16T22:33:08.828Z,99.90
2018-08-16T22:35:38.268Z,99.90
2018-08-16T22:38:07.642Z,99.90
2018-08-16T22:40:37.066Z,99.90
2018-08-16T22:43:06.714Z,99.90
2018-08-16T22:45:36.191Z,99.90
2018-08-16T22:48:05.829Z,99.90
2018-08-16T22:50:35.311Z,99.90
2018-08-16T22:53:04.765Z,99.90
2018-08-16T22:55:34.552Z,99.90
2018-08-16T22:58:03.904Z,99.90
2018-08-16T23:00:33.337Z,99.90
2018-08-16T23:03:02.692Z,99.90
2018-08-16T23:05:32.145Z,99.90
2018-08-16T23:08:01.516Z,99.90
2018-08-16T23:10:30.947Z,99.90
2018-08-16T23:13:00.313Z,99.90
2018-08-16T23:15:29.729Z,99.90
2018-08-16T23:17:59.093Z,99.90
2018-08-16T23:20:28.556Z,99.90
2018-08-16T23:22:57.923Z,99.90
2018-08-16T23:25:27.345Z,99.90
2018-08-16T23:27:56.711Z,99.90
2018-08-16T23:30:26.146Z,99.90
2018-08-16T23:32:55.498Z,99.90
2018-08-16T23:35:24.872Z,99.90
2018-08-16T23:37:54.216Z,99.90
2018-08-16T23:40:23.677Z,99.90
2018-08-16T23:42:53.908Z,99.90
2018-08-16T23:45:23.260Z,99.90
2018-08-16T23:48:37.047Z,99.90
2018-08-16T23:51:06.504Z,99.90
2018-08-16T23:53:35.865Z,99.90
2018-08-16T23:56:05.521Z,99.90
2018-08-16T23:58:34.855Z,99.90
